Pagrindinis puslapis
METAR-TAF:

METAR-TAF

Oro uostai :

Pajala, Švedija

platuma: 67-14-44N, ilguma: 023-04-08E, Aukštis: 165 m

Dabartinis oras

Ataskaita buvo paskelbta 22 minutes, ne 14:20 UTC
Vėjas 11 kt iš Šiaurės/Šiaurės Rytų, svyruoja nuo Šiaurės ir Rytų/Šiaurės Rytų
Temperatūra -2°C
Drėgmė 39%
Slėgis 1019 hPa
Matomumas 10 km arba daugiau

METAR: ESUP 201420Z AUTO 02011KT 350V070 9999 // NCD M02/M14 Q1019

Laikas: 16:42 (14:42 UTC)


TAF: trūkstamas

Orai ataskaitas ir orų prognozės (METAR, TAF).

turimą stotys yra geltonos ir raudonos taškus žemėlapyje.

Perkelti pele per norėdami pamatyti stoties vardą.

Tada spustelėkite, norėdami matyti oro stebėjimo ir prognozės.

Norėdami pakeisti žemėlapį: spustelėkite ant žalios mygtukų su juodo kryžiaus žemyn,; žalią mygtuką su brūkšneliu, jei norite nutolinti; arba žalių rodyklių gretimoms žemėlapius.


METAR-TAF: